Time;durP1;ratioP1;P1;durP2;ratioP2;P2;SDS_P1;SDS_P2;PMS_P1;PMS_P2;Temp;Humidity;BMP_temperature;BMP_pressure;BME280_temperature;BME280_humidity;BME280_pressure;Samples;Min_cycle;Max_cycle;Signal;HPM_P1;HPM_P2
2022/04/13 00:00:39;;;;;;;29.35;14.53;;;;;;;6.14;48.51;101039.69;1726378;82;21117;-66
2022/04/13 00:03:06;;;;;;;26.90;14.13;;;;;;;6.10;48.60;101039.10;1729584;82;21059;-66
2022/04/13 00:05:33;;;;;;;27.10;14.40;;;;;;;6.09;48.69;101037.41;1724074;82;20960;-66
2022/04/13 00:08:00;;;;;;;29.12;13.95;;;;;;;6.07;48.76;101031.41;1727225;83;21162;-66
2022/04/13 00:10:26;;;;;;;23.05;13.38;;;;;;;6.05;48.85;101030.72;1726011;82;21007;-66
2022/04/13 00:12:52;;;;;;;27.02;14.13;;;;;;;6.05;48.93;101027.22;1723710;83;21051;-66
2022/04/13 00:15:18;;;;;;;30.37;13.78;;;;;;;6.02;49.01;101019.02;1723486;83;20896;-66
2022/04/13 00:17:44;;;;;;;26.80;12.90;;;;;;;5.99;49.08;101017.48;1727452;83;21078;-66
2022/04/13 00:20:12;;;;;;;27.90;14.87;;;;;;;5.97;49.18;101018.58;1730196;83;21209;-66
2022/04/13 00:22:38;;;;;;;28.10;13.62;;;;;;;5.97;49.28;101010.64;1730446;83;21016;-66
2022/04/13 00:25:05;;;;;;;24.05;13.62;;;;;;;5.94;49.36;101007.77;1730361;82;20980;-66
2022/04/13 00:27:31;;;;;;;27.32;13.58;;;;;;;5.91;49.45;101003.20;1730454;83;20980;-66
2022/04/13 00:29:57;;;;;;;26.50;13.25;;;;;;;5.88;49.55;101002.10;1728113;82;20857;-66
2022/04/13 00:32:22;;;;;;;27.85;12.47;;;;;;;5.86;49.63;101001.41;1723297;83;21167;-66
2022/04/13 00:34:48;;;;;;;30.65;13.70;;;;;;;5.83;49.72;100999.82;1728675;82;21475;-66
2022/04/13 00:37:15;;;;;;;23.75;12.80;;;;;;;5.82;49.80;100994.16;1739641;82;21524;-66
2022/04/13 00:39:42;;;;;;;34.23;15.25;;;;;;;5.82;49.90;100997.28;1723614;83;20896;-66
2022/04/13 00:42:08;;;;;;;26.00;13.32;;;;;;;5.81;49.98;100991.62;1723886;83;21015;-66
2022/04/13 00:44:35;;;;;;;22.87;13.48;;;;;;;5.77;50.09;100983.61;1723881;83;21313;-66
2022/04/13 00:47:06;;;;;;;21.37;13.03;;;;;;;5.79;50.19;100982.98;1724635;83;20995;-66
2022/04/13 00:49:32;;;;;;;25.68;13.50;;;;;;;5.77;50.26;100980.95;1731889;82;20980;-66
2022/04/13 00:52:02;;;;;;;24.85;13.62;;;;;;;5.75;50.34;100989.48;1745654;81;21005;-66
2022/04/13 00:54:31;;;;;;;26.25;13.62;;;;;;;5.73;50.43;100986.14;1726802;82;21006;-66
2022/04/13 00:56:59;;;;;;;26.35;11.57;;;;;;;5.72;50.52;100988.41;1724434;83;21132;-66
2022/04/13 00:59:25;;;;;;;26.07;14.40;;;;;;;5.72;50.62;100995.03;1725541;83;21031;-66
2022/04/13 01:01:54;;;;;;;29.40;14.63;;;;;;;5.69;50.69;100986.02;1723804;83;21484;-66
2022/04/13 01:04:20;;;;;;;25.25;14.00;;;;;;;5.65;50.79;100985.91;1701061;82;20995;-66
2022/04/13 01:06:46;;;;;;;23.60;13.58;;;;;;;5.63;50.87;100982.56;1723828;83;21016;-66
2022/04/13 01:09:12;;;;;;;28.42;13.98;;;;;;;5.60;50.97;100970.88;1726824;83;21158;-66
2022/04/13 01:11:39;;;;;;;25.15;14.15;;;;;;;5.59;51.10;100975.83;1729850;82;21031;-66
2022/04/13 01:14:05;;;;;;;22.93;13.53;;;;;;;5.56;51.18;100976.08;1726998;82;21017;-66
2022/04/13 01:16:34;;;;;;;23.92;13.43;;;;;;;5.52;51.28;100985.56;1723749;83;21516;-66
2022/04/13 01:18:59;;;;;;;29.07;13.53;;;;;;;5.51;51.38;100978.61;1724036;83;20987;-66
2022/04/13 01:21:47;;;;;;;28.27;13.80;;;;;;;5.52;51.48;100983.42;1728744;83;21526;-66
2022/04/13 01:24:10;;;;;;;23.30;12.43;;;;;;;5.49;51.56;100983.16;1735005;82;21036;-66
2022/04/13 01:26:36;;;;;;;29.25;14.13;;;;;;;5.45;51.63;100978.27;1745718;82;21508;-66
2022/04/13 01:29:02;;;;;;;25.70;13.48;;;;;;;5.42;51.70;100985.94;1745531;82;20980;-66
2022/04/13 01:31:28;;;;;;;26.82;14.73;;;;;;;5.41;51.77;100992.22;1729550;82;21062;-66
2022/04/13 01:33:54;;;;;;;24.98;12.98;;;;;;;5.26;51.68;100971.42;1723684;83;21905;-66
2022/04/13 01:36:20;;;;;;;23.92;13.40;;;;;;;5.26;51.68;100971.42;1742534;82;21007;-66
2022/04/13 01:38:48;;;;;;;24.90;13.58;;;;;;;5.36;51.98;100986.44;1739298;82;21894;-66
2022/04/13 01:41:15;;;;;;;26.55;13.28;;;;;;;5.33;52.05;100991.98;1728918;82;21051;-66
2022/04/13 01:43:41;;;;;;;22.50;13.13;;;;;;;5.32;52.11;100996.90;1723868;82;20885;-66
2022/04/13 01:46:07;;;;;;;25.65;12.63;;;;;;;5.30;52.16;100997.52;1723646;83;21043;-66
2022/04/13 01:48:33;;;;;;;22.20;13.28;;;;;;;5.30;52.21;101004.60;1723665;83;20880;-66
2022/04/13 01:50:59;;;;;;;25.48;13.20;;;;;;;5.27;52.25;101002.20;1712711;83;21094;-66
2022/04/13 01:53:26;;;;;;;27.70;14.20;;;;;;;5.27;52.34;101000.41;1704141;84;21051;-66
2022/04/13 01:55:54;;;;;;;21.75;13.45;;;;;;;5.28;52.39;101000.74;1704261;84;21502;-66
2022/04/13 01:58:21;;;;;;;24.90;13.83;;;;;;;5.25;52.44;101006.27;1716416;83;21268;-66
2022/04/13 02:00:51;;;;;;;26.68;13.43;;;;;;;5.21;52.49;101003.98;1713172;83;21015;-66
2022/04/13 02:03:15;;;;;;;28.02;14.23;;;;;;;5.21;52.56;101004.83;1716411;83;21102;-65
2022/04/13 02:05:41;;;;;;;28.60;12.60;;;;;;;5.17;52.58;101002.09;1695368;83;20900;-66
2022/04/13 02:08:07;;;;;;;24.15;13.38;;;;;;;5.15;52.64;101007.13;1723618;83;21011;-66
2022/04/13 02:10:33;;;;;;;22.50;12.93;;;;;;;5.13;52.68;101007.26;1719515;83;21151;-66
2022/04/13 02:12:59;;;;;;;22.37;13.55;;;;;;;5.08;52.75;101014.69;1708475;84;20991;-66
2022/04/13 02:15:26;;;;;;;22.17;14.00;;;;;;;5.04;52.80;101020.70;1708948;84;20927;-66
2022/04/13 02:17:52;;;;;;;24.90;13.22;;;;;;;4.99;52.88;101018.06;1708359;84;20996;-66
2022/04/13 02:20:18;;;;;;;29.00;14.40;;;;;;;4.96;52.96;101018.31;1716634;83;20889;-66
2022/04/13 02:22:45;;;;;;;30.82;14.78;;;;;;;4.92;52.98;101022.14;1723019;83;22020;-66
2022/04/13 02:25:11;;;;;;;28.62;14.50;;;;;;;4.88;53.08;101024.66;1723602;83;21042;-66
2022/04/13 02:27:37;;;;;;;31.48;15.18;;;;;;;4.86;53.14;101019.95;1723831;83;20997;-66
2022/04/13 02:30:05;;;;;;;24.37;14.13;;;;;;;4.85;53.21;101020.94;1713029;83;20878;-66
2022/04/13 02:32:31;;;;;;;28.32;14.45;;;;;;;4.80;53.28;101017.79;1717516;83;21030;-66
2022/04/13 02:34:57;;;;;;;22.67;12.88;;;;;;;4.77;53.37;101020.67;1723339;82;21135;-66
2022/04/13 02:37:23;;;;;;;26.30;14.78;;;;;;;4.74;53.48;101024.40;1723685;83;20951;-66
2022/04/13 02:39:49;;;;;;;25.08;14.87;;;;;;;4.73;53.57;101019.22;1714916;83;21021;-66
2022/04/13 02:42:15;;;;;;;27.62;14.03;;;;;;;4.73;53.62;101024.50;1708880;84;20985;-66
2022/04/13 02:44:42;;;;;;;29.50;15.10;;;;;;;4.68;53.69;101024.03;1708781;84;21544;-66
2022/04/13 02:47:08;;;;;;;32.00;15.15;;;;;;;4.67;53.77;101022.34;1709003;83;21326;-66
2022/04/13 02:49:34;;;;;;;24.57;14.15;;;;;;;4.67;53.88;101021.86;1702164;83;21102;-66
2022/04/13 02:52:00;;;;;;;27.35;14.58;;;;;;;4.66;53.96;101023.28;1680153;85;20920;-66
2022/04/13 02:54:26;;;;;;;27.48;15.60;;;;;;;4.65;54.08;101028.20;1708337;84;21039;-66
2022/04/13 02:56:52;;;;;;;23.87;14.85;;;;;;;4.65;54.14;101018.95;1708488;84;21019;-66
2022/04/13 02:59:18;;;;;;;26.60;14.87;;;;;;;4.63;54.27;101015.60;1708827;84;21104;-66
2022/04/13 03:01:44;;;;;;;29.75;16.00;;;;;;;4.61;54.36;101025.45;1713468;82;21009;-66
2022/04/13 03:04:10;;;;;;;25.55;15.10;;;;;;;4.60;54.46;101016.69;1741521;82;20939;-66
2022/04/13 03:06:36;;;;;;;27.90;16.30;;;;;;;4.60;54.53;101013.20;1710067;82;21030;-66
2022/04/13 03:09:03;;;;;;;29.67;15.83;;;;;;;4.58;54.61;101025.19;1711355;83;20978;-66
2022/04/13 03:11:30;;;;;;;26.45;15.85;;;;;;;4.56;54.68;101019.66;1691513;84;21566;-66
2022/04/13 03:13:56;;;;;;;31.27;15.65;;;;;;;4.57;54.78;101016.08;1687921;84;21047;-66
2022/04/13 03:16:23;;;;;;;33.92;15.75;;;;;;;4.59;54.88;101012.82;1693170;84;20904;-66
2022/04/13 03:18:49;;;;;;;27.48;16.10;;;;;;;4.60;54.97;101010.55;1693023;84;21083;-66
2022/04/13 03:21:17;;;;;;;34.88;16.02;;;;;;;4.58;55.04;101004.53;1707371;83;21330;-66
2022/04/13 03:23:43;;;;;;;32.58;16.00;;;;;;;4.57;55.15;101000.23;1693058;84;21168;-65
2022/04/13 03:26:09;;;;;;;29.72;15.05;;;;;;;4.57;55.22;101000.23;1708792;84;20982;-65
2022/04/13 03:28:35;;;;;;;27.48;16.27;;;;;;;4.57;55.30;101000.23;1680438;85;20992;-65
2022/04/13 03:31:01;;;;;;;25.92;15.55;;;;;;;4.57;55.38;101002.87;1707978;84;20963;-65
2022/04/13 03:33:27;;;;;;;30.95;17.85;;;;;;;4.56;55.43;100998.53;1708850;84;21748;-66
2022/04/13 03:35:53;;;;;;;32.83;20.35;;;;;;;4.51;55.48;101002.36;1711864;83;21143;-66
2022/04/13 03:38:19;;;;;;;30.15;18.77;;;;;;;4.51;55.55;101007.64;1693312;84;21071;-65
2022/04/13 03:40:45;;;;;;;29.55;15.72;;;;;;;4.49;55.61;101004.30;1704030;83;21023;-66
2022/04/13 03:43:11;;;;;;;27.70;16.05;;;;;;;4.49;55.69;101008.25;1723030;83;21087;-66
2022/04/13 03:45:37;;;;;;;26.12;16.17;;;;;;;4.50;55.73;101012.55;1723115;83;20976;-66
2022/04/13 03:48:04;;;;;;;28.75;16.20;;;;;;;4.50;55.81;101008.59;1722625;83;21193;-66
2022/04/13 03:50:30;;;;;;;27.48;15.08;;;;;;;4.53;55.89;101003.58;1714064;83;21578;-66
2022/04/13 03:52:56;;;;;;;30.65;15.13;;;;;;;4.51;55.96;101002.36;1703584;84;21002;-65
2022/04/13 03:55:22;;;;;;;26.55;15.55;;;;;;;4.56;56.03;101014.38;1704251;84;21042;-65
2022/04/13 03:57:51;;;;;;;30.48;18.07;;;;;;;4.54;56.06;101006.09;1704305;84;21030;-66
2022/04/13 04:00:17;;;;;;;38.80;19.20;;;;;;;4.52;56.11;101011.98;1704462;84;21124;-66
2022/04/13 04:02:44;;;;;;;30.77;17.48;;;;;;;4.50;56.14;101010.42;1703955;84;21061;-66
2022/04/13 04:05:12;;;;;;;33.05;18.80;;;;;;;4.47;56.19;101015.43;1714959;82;21007;-65
2022/04/13 04:07:38;;;;;;;31.55;18.15;;;;;;;4.47;56.24;101018.07;1716098;83;21028;-66
2022/04/13 04:10:06;;;;;;;34.33;17.30;;;;;;;4.47;56.26;101017.22;1716725;82;21045;-66
2022/04/13 04:12:39;;;;;;;26.40;16.15;;;;;;;4.49;56.30;101025.89;1716944;82;21191;-65
2022/04/13 04:15:06;;;;;;;32.00;16.52;;;;;;;4.49;56.34;101028.06;1734523;82;21003;-66
2022/04/13 04:17:32;;;;;;;27.27;16.12;;;;;;;4.50;56.40;101027.08;1734410;82;20975;-66
2022/04/13 04:19:58;;;;;;;32.90;16.87;;;;;;;4.52;56.43;101024.34;1734272;82;20995;-66
2022/04/13 04:22:25;;;;;;;27.85;16.35;;;;;;;4.53;56.49;101029.52;1703491;84;21053;-66
2022/04/13 04:24:51;;;;;;;24.20;15.18;;;;;;;4.56;56.53;101026.27;1704456;84;21808;-65
2022/04/13 04:27:17;;;;;;;26.10;15.88;;;;;;;4.62;56.60;101029.75;1717459;82;20999;-65
2022/04/13 04:29:43;;;;;;;33.00;16.65;;;;;;;4.75;56.63;101031.84;1716789;82;21042;-66
2022/04/13 04:32:09;;;;;;;27.80;15.80;;;;;;;4.86;56.62;101031.84;1704143;84;21006;-66
2022/04/13 04:34:35;;;;;;;28.70;15.65;;;;;;;5.02;56.58;101033.68;1707619;82;20986;-66
2022/04/13 04:37:01;;;;;;;26.17;16.05;;;;;;;5.57;56.73;101025.36;1734342;82;21154;-66
2022/04/13 04:39:28;;;;;;;25.62;16.40;;;;;;;6.16;56.68;101022.70;1720232;82;21015;-66
2022/04/13 04:41:55;;;;;;;25.43;15.50;;;;;;;6.66;56.49;101022.95;1704485;84;21432;-66
2022/04/13 04:44:21;;;;;;;23.38;14.60;;;;;;;7.04;56.17;101020.52;1715514;82;20998;-66
2022/04/13 04:46:47;;;;;;;25.10;14.35;;;;;;;7.34;55.90;101012.57;1734323;82;21014;-66
2022/04/13 04:49:13;;;;;;;25.77;14.90;;;;;;;7.50;55.50;101012.89;1724018;82;21196;-66
2022/04/13 04:51:40;;;;;;;27.30;14.93;;;;;;;7.67;55.17;101019.87;1726268;82;21038;-66
2022/04/13 04:54:06;;;;;;;22.95;14.43;;;;;;;8.09;55.00;101009.39;1730584;83;20904;-66
2022/04/13 04:56:34;;;;;;;25.15;14.58;;;;;;;8.55;54.57;101011.85;1730423;83;21509;-66
2022/04/13 04:59:00;;;;;;;25.65;14.60;;;;;;;8.68;54.00;101011.89;1736429;82;21037;-66
2022/04/13 05:01:26;;;;;;;37.17;15.45;;;;;;;8.88;53.52;101007.36;1725951;82;21075;-66
2022/04/13 05:03:52;;;;;;;24.23;13.50;;;;;;;9.08;53.05;101003.65;1730177;83;20892;-66
2022/04/13 05:06:27;;;;;;;20.85;14.13;;;;;;;9.29;52.54;101006.93;1742516;82;21685;-67
2022/04/13 05:08:52;;;;;;;23.60;13.90;;;;;;;9.50;52.06;101006.20;1737316;82;21044;-66
2022/04/13 05:11:18;;;;;;;23.73;14.10;;;;;;;9.74;51.61;101006.16;1733599;82;21064;-67
2022/04/13 05:13:45;;;;;;;21.07;13.55;;;;;;;9.98;51.14;101011.73;1744862;82;21171;-67
2022/04/13 05:16:13;;;;;;;24.45;14.18;;;;;;;10.11;50.67;101014.86;1745664;82;21540;-67
2022/04/13 05:18:41;;;;;;;23.92;14.68;;;;;;;10.20;49.92;101017.16;1738996;81;21028;-67
2022/04/13 05:21:07;;;;;;;25.68;14.13;;;;;;;9.91;49.34;101014.66;1733796;82;21024;-67
2022/04/13 05:23:33;;;;;;;23.35;14.63;;;;;;;9.46;49.28;101019.45;1733107;82;21443;-67
2022/04/13 05:25:59;;;;;;;25.82;13.75;;;;;;;9.10;49.45;101021.66;1733156;82;21965;-66
2022/04/13 05:28:25;;;;;;;21.93;13.43;;;;;;;8.98;49.60;101028.12;1744311;82;21629;-67
2022/04/13 05:30:51;;;;;;;20.97;14.28;;;;;;;8.90;49.60;101026.17;1745562;82;20932;-67
2022/04/13 05:33:17;;;;;;;26.23;15.58;;;;;;;8.83;49.58;101009.11;1730125;82;21031;-67
2022/04/13 05:35:45;;;;;;;24.77;14.70;;;;;;;8.80;49.42;101024.52;1724689;82;21062;-67
2022/04/13 05:38:11;;;;;;;23.07;14.43;;;;;;;8.83;49.38;101029.58;1723852;83;21150;-67
2022/04/13 05:40:37;;;;;;;22.73;14.38;;;;;;;9.03;49.35;101027.20;1723209;83;21011;-67
2022/04/13 05:43:03;;;;;;;26.40;15.70;;;;;;;9.31;49.31;101020.95;1723845;83;20951;-67
2022/04/13 05:45:29;;;;;;;28.60;14.85;;;;;;;9.39;49.19;101025.02;1727415;82;21456;-67
2022/04/13 05:47:56;;;;;;;24.52;15.20;;;;;;;9.56;49.06;101026.58;1730113;82;21031;-67
2022/04/13 05:50:23;;;;;;;33.15;17.65;;;;;;;9.71;48.97;101031.23;1723521;83;21914;-67
2022/04/13 05:52:49;;;;;;;26.55;17.05;;;;;;;9.78;48.81;101026.19;1716179;83;21713;-67
2022/04/13 05:55:15;;;;;;;27.35;18.42;;;;;;;10.00;48.73;101033.23;1704306;83;21008;-67
2022/04/13 05:57:41;;;;;;;26.50;15.80;;;;;;;10.13;48.64;101038.70;1703930;84;21006;-67
2022/04/13 06:00:10;;;;;;;25.43;14.80;;;;;;;10.46;48.57;101033.55;1704413;83;21033;-67
2022/04/13 06:02:37;;;;;;;24.20;14.80;;;;;;;10.47;48.23;101035.23;1704135;83;21131;-67
2022/04/13 06:05:05;;;;;;;22.58;14.28;;;;;;;10.38;48.10;101032.13;1690086;83;21582;-67
2022/04/13 06:07:31;;;;;;;24.70;14.25;;;;;;;10.49;47.93;101029.23;1716723;83;21000;-67
2022/04/13 06:10:01;;;;;;;25.50;16.00;;;;;;;10.46;47.71;101029.55;1716552;83;21480;-67
2022/04/13 06:12:25;;;;;;;29.40;15.95;;;;;;;10.36;47.48;101032.80;1716277;83;20988;-67
2022/04/13 06:14:51;;;;;;;23.77;15.13;;;;;;;10.47;47.39;101032.56;1704307;83;21149;-67
2022/04/13 06:17:17;;;;;;;30.27;15.48;;;;;;;10.63;47.28;101029.18;1704203;83;21505;-67
2022/04/13 06:19:43;;;;;;;19.77;14.10;;;;;;;10.85;47.14;101038.52;1704078;84;21485;-67
2022/04/13 06:22:09;;;;;;;21.48;14.90;;;;;;;10.89;46.88;101033.22;1704204;83;21940;-67
2022/04/13 06:24:35;;;;;;;24.70;15.20;;;;;;;10.88;46.75;101035.53;1703668;83;21022;-67
2022/04/13 06:27:01;;;;;;;23.50;14.58;;;;;;;11.13;46.65;101041.87;1704034;83;21747;-68
2022/04/13 06:29:27;;;;;;;30.10;15.98;;;;;;;11.23;46.52;101035.91;1705239;83;21001;-68
2022/04/13 06:31:53;;;;;;;26.12;15.93;;;;;;;11.46;46.43;101028.55;1704885;83;21074;-68
2022/04/13 06:34:19;;;;;;;23.15;14.40;;;;;;;11.63;46.27;101036.62;1705032;83;21054;-68
2022/04/13 06:36:45;;;;;;;24.40;15.32;;;;;;;11.79;46.13;101039.38;1716314;83;21004;-68
2022/04/13 06:39:11;;;;;;;27.32;15.85;;;;;;;11.92;45.97;101038.43;1716683;83;21083;-68
2022/04/13 06:41:37;;;;;;;28.47;15.28;;;;;;;11.83;45.76;101039.39;1716431;83;21086;-68
2022/04/13 06:44:04;;;;;;;24.20;14.65;;;;;;;11.95;45.65;101038.10;1708180;83;21008;-68
2022/04/13 06:46:31;;;;;;;23.52;14.87;;;;;;;11.92;45.42;101039.77;1711449;83;21453;-68
2022/04/13 06:48:58;;;;;;;25.70;13.45;;;;;;;11.92;45.14;101038.43;1712062;83;21092;-68
2022/04/13 06:51:24;;;;;;;22.45;13.38;;;;;;;11.86;44.90;101037.23;1713320;82;21132;-67
2022/04/13 06:53:50;;;;;;;24.07;13.22;;;;;;;11.93;44.67;101041.42;1715883;82;21031;-68
2022/04/13 06:56:16;;;;;;;22.58;13.85;;;;;;;11.89;44.45;101044.11;1704920;83;20895;-67
2022/04/13 06:58:42;;;;;;;19.77;13.53;;;;;;;11.89;44.31;101050.78;1701545;84;20985;-67
2022/04/13 07:01:09;;;;;;;24.12;13.90;;;;;;;12.10;44.28;101051.18;1703990;84;21096;-67
2022/04/13 07:03:35;;;;;;;25.55;14.07;;;;;;;12.27;44.17;101050.20;1702698;84;21167;-67
2022/04/13 07:06:01;;;;;;;26.77;14.68;;;;;;;12.41;43.99;101058.08;1702343;84;21029;-68
2022/04/13 07:08:27;;;;;;;22.32;14.78;;;;;;;12.55;43.93;101060.09;1697259;82;21006;-68
2022/04/13 07:10:53;;;;;;;22.95;15.00;;;;;;;12.62;43.75;101062.44;1691127;83;21039;-68
2022/04/13 07:13:19;;;;;;;22.40;14.30;;;;;;;12.73;43.61;101062.61;1699622;82;21048;-68
2022/04/13 07:15:45;;;;;;;22.17;14.07;;;;;;;12.70;43.41;101057.59;1703326;82;21856;-68
2022/04/13 07:18:11;;;;;;;18.10;12.90;;;;;;;12.71;43.30;101056.57;1700529;83;21076;-68
2022/04/13 07:20:37;;;;;;;22.00;13.70;;;;;;;12.78;43.09;101058.91;1700735;82;21014;-68
2022/04/13 07:23:04;;;;;;;25.30;13.50;;;;;;;12.70;42.88;101056.26;1703539;84;21053;-68
2022/04/13 07:25:30;;;;;;;22.30;14.53;;;;;;;12.70;42.77;101062.42;1703273;84;21041;-68
2022/04/13 07:27:56;;;;;;;19.67;13.32;;;;;;;12.65;42.56;101067.45;1703103;84;21811;-69
2022/04/13 07:30:22;;;;;;;23.02;14.43;;;;;;;12.49;42.27;101060.24;1703769;84;21041;-68
2022/04/13 07:32:52;;;;;;;24.82;15.75;;;;;;;12.55;42.22;101068.62;1703971;84;20921;-68
2022/04/13 07:35:17;;;;;;;26.77;14.15;;;;;;;12.73;42.27;101075.99;1705082;82;21102;-68
2022/04/13 07:37:44;;;;;;;26.52;14.30;;;;;;;12.82;42.10;101066.95;1721601;82;21018;-69
2022/04/13 07:40:11;;;;;;;22.15;14.33;;;;;;;12.82;41.94;101062.93;1734438;82;21125;-68
2022/04/13 07:42:37;;;;;;;20.65;13.70;;;;;;;12.94;41.92;101063.77;1734377;82;21449;-68
2022/04/13 07:45:07;;;;;;;20.05;13.20;;;;;;;13.07;41.85;101065.92;1728624;82;21082;-68
2022/04/13 07:47:33;;;;;;;19.27;13.28;;;;;;;13.19;41.66;101065.95;1707562;82;26835;-68
2022/04/13 07:49:59;;;;;;;20.08;13.18;;;;;;;13.26;41.62;101068.78;1703017;84;21015;-68
2022/04/13 07:52:25;;;;;;;23.75;13.80;;;;;;;13.64;41.64;101061.78;1714563;82;21118;-68
2022/04/13 07:54:51;;;;;;;19.02;12.90;;;;;;;13.87;41.48;101060.84;1704585;83;20991;-68
2022/04/13 07:57:17;;;;;;;21.95;13.85;;;;;;;13.85;41.21;101055.33;1704646;84;20979;-68
2022/04/13 07:59:43;;;;;;;24.87;15.00;;;;;;;14.14;41.20;101060.04;1703515;84;21512;-69
2022/04/13 08:02:09;;;;;;;22.48;13.43;;;;;;;14.15;40.92;101061.19;1704298;84;21574;-68
2022/04/13 08:04:35;;;;;;;23.40;13.80;;;;;;;14.11;40.66;101064.42;1704297;84;21872;-69
2022/04/13 08:07:02;;;;;;;21.55;13.13;;;;;;;14.23;40.60;101061.14;1704281;84;21467;-68
2022/04/13 08:09:28;;;;;;;22.13;12.90;;;;;;;14.33;40.38;101060.41;1704448;84;21594;-69
2022/04/13 08:11:54;;;;;;;19.12;12.80;;;;;;;14.39;40.18;101062.94;1704505;84;21026;-69
2022/04/13 08:14:21;;;;;;;23.55;13.62;;;;;;;14.42;39.97;101056.70;1704229;84;21550;-69
2022/04/13 08:16:47;;;;;;;24.02;14.05;;;;;;;14.51;39.76;101056.12;1704250;84;21162;-69
2022/04/13 08:19:13;;;;;;;22.10;13.55;;;;;;;14.58;39.60;101061.59;1704093;84;21054;-69
2022/04/13 08:21:39;;;;;;;19.45;13.48;;;;;;;14.59;39.42;101051.20;1704119;84;20930;-69
2022/04/13 08:24:06;;;;;;;23.90;13.38;;;;;;;14.81;39.41;101054.37;1704387;84;20888;-69
2022/04/13 08:26:32;;;;;;;17.42;12.25;;;;;;;14.83;39.15;101047.80;1704451;84;20963;-69
2022/04/13 08:28:58;;;;;;;18.65;11.78;;;;;;;14.89;38.98;101052.94;1704137;84;21034;-69
2022/04/13 08:31:24;;;;;;;20.72;11.68;;;;;;;14.93;38.69;101050.22;1704274;84;21129;-69
2022/04/13 08:33:50;;;;;;;17.80;11.40;;;;;;;14.82;38.27;101050.66;1704339;84;20923;-69
2022/04/13 08:36:17;;;;;;;20.08;12.65;;;;;;;14.73;37.93;101046.38;1704396;84;20994;-69
2022/04/13 08:38:43;;;;;;;18.17;12.13;;;;;;;14.78;37.74;101041.29;1704348;84;21582;-69
2022/04/13 08:41:16;;;;;;;18.00;11.65;;;;;;;14.95;37.71;101043.64;1704447;84;21767;-69
2022/04/13 08:43:49;;;;;;;22.93;12.05;;;;;;;15.13;37.41;101043.30;1704308;84;20999;-69
2022/04/13 08:46:24;;;;;;;17.17;12.58;;;;;;;15.12;37.23;101047.03;1704161;84;21400;-69
2022/04/13 08:48:56;;;;;;;17.73;12.30;;;;;;;15.25;37.31;101052.59;1704372;84;21491;-69
2022/04/13 08:51:24;;;;;;;18.98;11.08;;;;;;;15.45;37.21;101049.67;1709281;82;21577;-69
2022/04/13 08:54:19;;;;;;;19.35;11.53;;;;;;;15.66;37.09;101046.77;1730507;83;21163;-69
2022/04/13 08:56:49;;;;;;;17.95;12.37;;;;;;;15.80;36.93;101048.60;1727275;83;21001;-69
2022/04/13 08:59:44;;;;;;;21.40;11.65;;;;;;;15.64;36.27;101047.47;1730359;83;21468;-69
2022/04/13 09:02:42;;;;;;;14.33;9.85;;;;;;;15.68;36.08;101047.43;1730442;83;21062;-69
2022/04/13 09:05:11;;;;;;;20.43;10.98;;;;;;;15.93;35.95;101056.86;1730371;82;21059;-69
2022/04/13 09:07:36;;;;;;;19.62;10.85;;;;;;;16.04;35.66;101046.95;1730124;83;21333;-69
2022/04/13 09:10:03;;;;;;;17.17;11.05;;;;;;;16.12;35.51;101042.78;1730274;83;20942;-69
2022/04/13 09:12:33;;;;;;;18.92;11.30;;;;;;;16.45;35.56;101038.59;1730505;83;21007;-69
2022/04/13 09:15:02;;;;;;;;;;;;;;;16.45;35.12;101045.33;1733244;83;21102;-69
2022/04/13 09:17:31;;;;;;;20.88;11.22;;;;;;;16.49;35.03;101041.22;1729315;83;20160;-69
2022/04/13 09:19:58;;;;;;;14.83;10.95;;;;;;;16.55;34.88;101045.50;1730703;83;21540;-69
2022/04/13 09:22:24;;;;;;;19.05;11.15;;;;;;;16.61;34.81;101043.41;1730751;83;20956;-69
2022/04/13 09:24:50;;;;;;;18.50;10.23;;;;;;;16.73;34.67;101045.91;1730342;83;20995;-69
2022/04/13 09:27:17;;;;;;;16.85;10.32;;;;;;;16.83;34.66;101038.33;1730627;82;21523;-69
2022/04/13 09:29:43;;;;;;;14.38;10.53;;;;;;;16.90;34.49;101040.05;1730384;82;21508;-69
2022/04/13 09:32:09;;;;;;;13.18;10.03;;;;;;;17.04;34.48;101038.28;1730284;83;21158;-69
2022/04/13 09:34:35;;;;;;;18.62;10.75;;;;;;;17.13;34.26;101035.78;1730285;83;21018;-69
2022/04/13 09:37:01;;;;;;;14.18;9.45;;;;;;;17.10;33.53;101037.49;1730369;83;20987;-69
2022/04/13 09:39:27;;;;;;;14.00;9.40;;;;;;;17.18;33.49;101034.66;1730401;83;21071;-69
2022/04/13 09:41:53;;;;;;;14.65;9.10;;;;;;;17.44;33.53;101042.92;1730442;83;21003;-69
2022/04/13 09:44:21;;;;;;;13.60;9.90;;;;;;;17.61;33.30;101031.82;1730287;83;21427;-69
2022/04/13 09:46:49;;;;;;;14.50;9.93;;;;;;;17.44;32.78;101040.22;1729800;83;20995;-69
2022/04/13 09:49:18;;;;;;;16.42;9.60;;;;;;;17.37;32.61;101039.86;1701580;83;21510;-69
2022/04/13 09:51:49;;;;;;;14.30;9.30;;;;;;;17.46;32.46;101038.14;1730202;82;20996;-69
2022/04/13 09:54:15;;;;;;;14.58;9.20;;;;;;;17.38;32.05;101032.91;1730547;83;21500;-70
2022/04/13 09:56:47;;;;;;;12.68;9.30;;;;;;;17.40;31.79;101033.55;1730453;83;21713;-69
2022/04/13 09:59:27;;;;;;;12.50;9.15;;;;;;;17.39;31.54;101029.19;1730256;83;21012;-69
2022/04/13 10:01:53;;;;;;;11.97;8.85;;;;;;;17.43;31.44;101030.45;1730530;83;21078;-69
2022/04/13 10:04:26;;;;;;;13.15;9.60;;;;;;;17.64;31.52;101023.33;1730223;82;21135;-69
2022/04/13 10:06:52;;;;;;;23.40;13.30;;;;;;;17.78;31.47;101030.44;1730520;83;20993;-69
2022/04/13 10:09:21;;;;;;;16.95;10.10;;;;;;;17.73;31.26;101026.19;1730358;83;21147;-69
2022/04/13 10:12:03;;;;;;;12.47;9.25;;;;;;;17.72;31.24;101021.30;1730343;83;28160;-69
2022/04/13 10:14:32;;;;;;;15.85;10.45;;;;;;;17.63;30.87;101013.05;1730537;83;20987;-69
2022/04/13 10:17:08;;;;;;;14.03;9.95;;;;;;;17.71;30.85;101025.53;1730457;83;20996;-69
2022/04/13 10:19:35;;;;;;;16.57;10.10;;;;;;;17.72;30.82;101019.95;1730309;83;21118;-69
2022/04/13 10:22:01;;;;;;;17.90;9.23;;;;;;;17.79;30.65;101026.72;1730361;83;21146;-69
2022/04/13 10:24:32;;;;;;;16.75;10.93;;;;;;;17.68;30.33;101020.03;1730499;83;21055;-69
2022/04/13 10:27:12;;;;;;;14.43;9.35;;;;;;;17.51;29.99;101011.94;1730294;83;21012;-69
2022/04/13 10:29:45;;;;;;;15.60;10.30;;;;;;;17.52;29.95;101014.13;1730041;83;21046;-68
2022/04/13 10:35:00;;;;;;;16.02;9.38;;;;;;;17.97;30.15;101014.86;1872365;74;22650;-69
2022/04/13 10:37:27;;;;;;;14.98;9.85;;;;;;;17.89;30.00;101009.63;1859571;76;20979;-69
2022/04/13 10:39:53;;;;;;;14.60;9.43;;;;;;;17.93;29.88;101010.89;1849098;76;21111;-69
2022/04/13 10:42:21;;;;;;;18.42;10.78;;;;;;;18.00;29.91;101003.64;1849579;76;20966;-69
2022/04/13 10:45:05;;;;;;;16.85;10.63;;;;;;;18.13;29.87;101002.32;1838702;76;20987;-69
2022/04/13 10:47:37;;;;;;;14.43;9.55;;;;;;;18.06;29.80;101006.87;1815331;76;21433;-69
2022/04/13 10:50:04;;;;;;;17.55;11.60;;;;;;;18.22;29.75;100998.41;1836825;76;21037;-69
2022/04/13 10:52:37;;;;;;;17.35;11.00;;;;;;;18.18;29.59;100993.62;1836418;76;22363;-69
2022/04/13 10:55:11;;;;;;;15.60;10.63;;;;;;;18.27;29.61;100995.91;1847988;76;20994;-69
2022/04/13 10:57:46;;;;;;;17.67;11.68;;;;;;;18.30;29.59;100998.20;1860009;76;20977;-69
2022/04/13 11:00:15;;;;;;;15.80;10.32;;;;;;;18.35;29.57;100998.42;1845541;76;21078;-69
2022/04/13 11:03:03;;;;;;;15.83;10.40;;;;;;;18.44;29.55;100993.64;1855782;76;21565;-69
2022/04/13 11:05:31;;;;;;;14.03;10.45;;;;;;;18.46;29.54;100984.31;1858464;77;21218;-69
2022/04/13 11:08:26;;;;;;;15.32;10.08;;;;;;;18.42;29.49;100993.03;1850790;77;20995;-68
2022/04/13 11:10:52;;;;;;;15.03;10.43;;;;;;;18.39;29.50;100988.88;1835542;77;21006;-68
2022/04/13 11:13:19;;;;;;;13.25;9.48;;;;;;;18.50;29.47;100993.34;1829173;75;20995;-68
2022/04/13 11:15:50;;;;;;;15.35;10.23;;;;;;;18.50;29.36;100989.30;1826429;77;21057;-69
2022/04/13 11:18:18;;;;;;;19.30;10.38;;;;;;;18.60;29.40;100987.88;1832415;77;22155;-69